createdAt,value
2017-09-25T00:00:05.294Z,18.80
2017-09-25T00:02:32.058Z,18.60
2017-09-25T00:04:58.875Z,18.17
2017-09-25T00:07:25.930Z,21.03
2017-09-25T00:09:52.707Z,18.10
2017-09-25T00:12:19.515Z,18.37
2017-09-25T00:14:46.273Z,17.63
2017-09-25T00:17:13.020Z,18.13
2017-09-25T00:19:39.827Z,18.83
2017-09-25T00:22:06.606Z,19.37
2017-09-25T00:24:34.147Z,17.90
2017-09-25T00:27:00.932Z,18.37
2017-09-25T00:29:27.744Z,19.47
2017-09-25T00:31:54.530Z,17.60
2017-09-25T00:34:21.955Z,20.07
2017-09-25T00:36:48.703Z,19.50
2017-09-25T00:39:16.094Z,18.37
2017-09-25T00:41:42.912Z,17.77
2017-09-25T00:44:09.675Z,18.53
2017-09-25T00:46:36.444Z,18.10
2017-09-25T00:49:03.249Z,19.07
2017-09-25T00:51:30.038Z,19.33
2017-09-25T00:53:57.534Z,18.23
2017-09-25T00:56:24.323Z,18.50
2017-09-25T00:58:51.139Z,18.80
2017-09-25T01:01:17.933Z,17.30
2017-09-25T01:03:50.527Z,17.07
2017-09-25T01:06:23.176Z,16.73
2017-09-25T01:08:50.239Z,17.43
2017-09-25T01:11:17.017Z,16.93
2017-09-25T01:13:43.776Z,17.90
2017-09-25T01:16:10.559Z,19.87
2017-09-25T01:18:37.989Z,19.00
2017-09-25T01:21:04.789Z,18.53
2017-09-25T01:23:31.599Z,18.00
2017-09-25T01:25:58.340Z,18.10
2017-09-25T01:28:25.091Z,16.80
2017-09-25T01:30:51.892Z,17.90
2017-09-25T01:33:18.658Z,17.60
2017-09-25T01:35:45.849Z,17.80
2017-09-25T01:38:12.647Z,18.20
2017-09-25T01:40:39.390Z,18.53
2017-09-25T01:43:06.142Z,17.13
2017-09-25T01:45:32.919Z,19.20
2017-09-25T01:47:59.689Z,18.90
2017-09-25T01:50:26.638Z,18.17
2017-09-25T01:52:53.416Z,18.40
2017-09-25T01:55:20.166Z,17.77
2017-09-25T01:57:46.911Z,18.20
2017-09-25T02:00:13.691Z,16.93
2017-09-25T02:02:40.468Z,20.63
2017-09-25T02:05:07.221Z,17.77
2017-09-25T02:07:34.017Z,15.90
2017-09-25T02:10:00.781Z,18.40
2017-09-25T02:12:27.661Z,16.60
2017-09-25T02:14:54.470Z,18.43
2017-09-25T02:17:21.257Z,17.83
2017-09-25T02:19:48.007Z,17.33
2017-09-25T02:22:14.809Z,17.27
2017-09-25T02:24:41.573Z,18.67
2017-09-25T02:27:08.343Z,17.77
2017-09-25T02:29:35.153Z,19.13
2017-09-25T02:32:01.927Z,17.70
2017-09-25T02:34:28.691Z,19.20
2017-09-25T02:36:55.489Z,17.20
2017-09-25T02:39:22.280Z,18.53
2017-09-25T02:41:49.526Z,16.97
2017-09-25T02:44:16.344Z,17.83
2017-09-25T02:46:43.100Z,20.53
2017-09-25T02:49:09.843Z,18.70
2017-09-25T02:51:36.641Z,18.27
2017-09-25T02:54:03.703Z,20.10
2017-09-25T02:56:30.479Z,18.47
2017-09-25T02:58:57.275Z,18.87
2017-09-25T03:01:24.024Z,19.70
2017-09-25T03:03:50.787Z,18.40
2017-09-25T03:06:18.227Z,17.90
2017-09-25T03:08:44.983Z,20.77
2017-09-25T03:11:11.736Z,19.57
2017-09-25T03:13:38.550Z,20.03
2017-09-25T03:16:05.330Z,20.47
2017-09-25T03:18:32.106Z,19.27
2017-09-25T03:20:58.927Z,19.73
2017-09-25T03:23:25.683Z,21.63
2017-09-25T03:25:52.424Z,20.20
2017-09-25T03:28:19.207Z,19.47
2017-09-25T03:30:45.981Z,18.80
2017-09-25T03:33:12.740Z,20.87
2017-09-25T03:35:39.554Z,21.20
2017-09-25T03:38:06.303Z,20.13
2017-09-25T03:40:33.060Z,20.40
2017-09-25T03:42:59.847Z,20.53
2017-09-25T03:45:26.607Z,20.70
2017-09-25T03:47:53.366Z,21.73
2017-09-25T03:50:20.193Z,20.93
2017-09-25T03:52:46.959Z,19.20
2017-09-25T03:55:13.730Z,20.90
2017-09-25T03:57:40.516Z,20.77
2017-09-25T04:00:07.251Z,18.53
2017-09-25T04:02:34.026Z,19.80
2017-09-25T04:05:00.828Z,20.63
2017-09-25T04:07:27.575Z,19.13
2017-09-25T04:09:54.350Z,20.83
2017-09-25T04:12:21.147Z,19.03
2017-09-25T04:14:47.918Z,19.30
2017-09-25T04:17:14.682Z,23.23
2017-09-25T04:19:42.199Z,21.37
2017-09-25T04:22:08.972Z,18.90
2017-09-25T04:24:35.742Z,20.00
2017-09-25T04:27:02.539Z,21.13
2017-09-25T04:29:29.304Z,19.80
2017-09-25T04:31:56.074Z,20.73
2017-09-25T04:34:23.308Z,18.87
2017-09-25T04:36:50.081Z,19.43
2017-09-25T04:39:16.854Z,20.23
2017-09-25T04:41:43.938Z,21.77
2017-09-25T04:44:10.707Z,22.03
2017-09-25T04:46:37.464Z,18.77
2017-09-25T04:49:04.287Z,21.77
2017-09-25T04:51:31.061Z,21.00
2017-09-25T04:53:57.820Z,23.23
2017-09-25T04:56:24.640Z,22.20
2017-09-25T04:58:51.551Z,20.80
2017-09-25T05:01:18.318Z,20.40
2017-09-25T05:03:45.107Z,20.00
2017-09-25T05:06:11.866Z,19.40
2017-09-25T05:08:38.631Z,19.17
2017-09-25T05:11:05.687Z,18.60
2017-09-25T05:13:32.467Z,19.63
2017-09-25T05:15:59.234Z,19.07
2017-09-25T05:18:26.061Z,18.90
2017-09-25T05:20:52.823Z,16.27
2017-09-25T05:23:20.210Z,18.53
2017-09-25T05:25:47.016Z,17.43
2017-09-25T05:28:13.786Z,16.10
2017-09-25T05:30:40.526Z,18.43
2017-09-25T05:33:07.337Z,16.47
2017-09-25T05:35:34.136Z,17.10
2017-09-25T05:38:00.900Z,17.20
2017-09-25T05:40:27.700Z,18.53
2017-09-25T05:42:54.470Z,16.50
2017-09-25T05:45:21.258Z,18.97
2017-09-25T05:47:48.043Z,18.20
2017-09-25T05:50:14.799Z,18.83
2017-09-25T05:52:41.564Z,18.73
2017-09-25T05:55:09.063Z,18.13
2017-09-25T05:57:35.835Z,17.07
2017-09-25T06:00:02.633Z,17.17
2017-09-25T06:02:29.983Z,18.63
2017-09-25T06:04:56.771Z,17.63
2017-09-25T06:07:24.082Z,18.10
2017-09-25T06:09:50.888Z,17.97
2017-09-25T06:12:17.847Z,18.77
2017-09-25T06:14:44.644Z,19.40
2017-09-25T06:17:11.444Z,19.60
2017-09-25T06:19:38.188Z,18.60
2017-09-25T06:22:04.935Z,17.83
2017-09-25T06:24:31.731Z,19.40
2017-09-25T06:26:59.174Z,19.30
2017-09-25T06:29:25.928Z,19.53
2017-09-25T06:31:52.730Z,19.73
2017-09-25T06:34:20.256Z,18.23
2017-09-25T06:36:47.019Z,20.17
2017-09-25T06:39:14.163Z,20.40
2017-09-25T06:41:40.912Z,21.60
2017-09-25T06:44:07.679Z,19.87
2017-09-25T06:46:34.480Z,18.80
2017-09-25T06:49:01.278Z,18.40
2017-09-25T06:51:28.054Z,19.03
2017-09-25T06:53:54.840Z,17.40
2017-09-25T06:56:21.597Z,18.80
2017-09-25T06:58:48.358Z,17.17
2017-09-25T07:01:15.148Z,18.07
2017-09-25T07:03:41.928Z,18.80
2017-09-25T07:06:08.684Z,19.93
2017-09-25T07:08:35.496Z,17.40
2017-09-25T07:11:02.251Z,18.07
2017-09-25T07:13:28.992Z,18.37
2017-09-25T07:15:55.796Z,19.40
2017-09-25T07:18:22.559Z,19.20
2017-09-25T07:20:49.342Z,17.80
2017-09-25T07:23:16.146Z,18.13
2017-09-25T07:25:43.634Z,16.63
2017-09-25T07:28:10.401Z,17.27
2017-09-25T07:30:37.190Z,17.10
2017-09-25T07:33:03.968Z,16.57
2017-09-25T07:35:30.758Z,15.93
2017-09-25T07:37:59.007Z,14.70
2017-09-25T07:40:25.814Z,15.90
2017-09-25T07:42:52.578Z,14.93
2017-09-25T07:45:19.376Z,15.33
2017-09-25T07:47:46.124Z,15.10
2017-09-25T07:50:12.887Z,13.23
2017-09-25T07:52:39.679Z,13.50
2017-09-25T07:55:07.146Z,14.50
2017-09-25T07:57:33.959Z,14.87
2017-09-25T08:00:00.747Z,17.13
2017-09-25T08:02:27.508Z,16.47
2017-09-25T08:04:54.247Z,17.53
2017-09-25T08:07:21.054Z,19.97
2017-09-25T08:09:47.811Z,21.23
2017-09-25T08:12:14.564Z,19.70
2017-09-25T08:14:41.371Z,21.03
2017-09-25T08:17:08.114Z,20.17
2017-09-25T08:19:34.847Z,18.60
2017-09-25T08:22:01.706Z,20.10
2017-09-25T08:24:28.470Z,17.17
2017-09-25T08:26:55.234Z,16.97
2017-09-25T08:29:22.015Z,16.70
2017-09-25T08:31:48.763Z,15.70
2017-09-25T08:34:15.533Z,15.00
2017-09-25T08:36:42.325Z,14.17
2017-09-25T08:39:09.079Z,13.80
2017-09-25T08:41:35.869Z,13.43
2017-09-25T08:44:02.679Z,13.17
2017-09-25T08:46:29.434Z,14.27
2017-09-25T08:48:56.220Z,13.67
2017-09-25T08:51:23.011Z,13.60
2017-09-25T08:53:49.831Z,12.97
2017-09-25T08:56:16.602Z,13.50
2017-09-25T08:58:43.971Z,14.50
2017-09-25T09:01:10.721Z,13.63
2017-09-25T09:03:37.503Z,14.13
2017-09-25T09:06:04.442Z,13.23
2017-09-25T09:08:37.009Z,13.90
2017-09-25T09:11:03.767Z,13.60
2017-09-25T09:13:30.553Z,14.23
2017-09-25T09:15:57.314Z,14.53
2017-09-25T09:18:24.061Z,14.93
2017-09-25T09:20:50.863Z,13.73
2017-09-25T09:23:17.643Z,12.20
2017-09-25T09:25:44.406Z,15.57
2017-09-25T09:28:11.210Z,13.57
2017-09-25T09:30:37.986Z,13.57
2017-09-25T09:33:04.755Z,14.90
2017-09-25T09:35:31.558Z,13.30
2017-09-25T09:37:58.299Z,13.77
2017-09-25T09:40:25.039Z,14.33
2017-09-25T09:42:51.824Z,12.93
2017-09-25T09:45:18.591Z,14.60
2017-09-25T09:47:45.379Z,13.67
2017-09-25T09:50:12.969Z,14.03
2017-09-25T09:52:39.716Z,13.07
2017-09-25T09:55:06.630Z,14.27
2017-09-25T09:57:33.679Z,16.13
2017-09-25T10:00:00.443Z,13.53
2017-09-25T10:02:27.572Z,15.17
2017-09-25T10:04:54.375Z,13.80
2017-09-25T10:07:21.146Z,14.40
2017-09-25T10:09:47.923Z,14.40
2017-09-25T10:12:14.708Z,15.07
2017-09-25T10:14:41.472Z,15.87
2017-09-25T10:17:08.223Z,14.50
2017-09-25T10:19:35.026Z,14.60
2017-09-25T10:22:01.772Z,14.87
2017-09-25T10:24:28.540Z,14.53
2017-09-25T10:26:55.330Z,12.83
2017-09-25T10:29:22.988Z,14.77
2017-09-25T10:31:49.743Z,13.50
2017-09-25T10:34:16.821Z,14.60
2017-09-25T10:36:43.572Z,13.20
2017-09-25T10:39:10.340Z,14.67
2017-09-25T10:41:37.120Z,13.80
2017-09-25T10:44:03.873Z,16.00
2017-09-25T10:46:30.619Z,15.30
2017-09-25T10:48:58.040Z,13.63
2017-09-25T10:51:24.792Z,14.63
2017-09-25T10:53:51.560Z,13.83
2017-09-25T10:56:18.456Z,14.77
2017-09-25T10:58:45.207Z,15.70
2017-09-25T11:01:11.951Z,14.90
2017-09-25T11:03:38.815Z,13.90
2017-09-25T11:06:06.362Z,14.60
2017-09-25T11:08:33.412Z,13.47
2017-09-25T11:11:00.198Z,15.57
2017-09-25T11:13:26.944Z,14.67
2017-09-25T11:15:53.722Z,13.30
2017-09-25T11:18:20.505Z,14.50
2017-09-25T11:20:47.247Z,13.57
2017-09-25T11:23:14.193Z,14.07
2017-09-25T11:25:40.999Z,14.53
2017-09-25T11:28:07.743Z,12.77
2017-09-25T11:30:34.510Z,14.13
2017-09-25T11:33:01.321Z,12.70
2017-09-25T11:35:28.071Z,14.00
2017-09-25T11:37:54.827Z,13.97
2017-09-25T11:40:21.627Z,14.40
2017-09-25T11:42:48.374Z,13.20
2017-09-25T11:45:15.155Z,12.73
2017-09-25T11:47:41.971Z,13.33
2017-09-25T11:50:08.715Z,13.40
2017-09-25T11:52:35.477Z,14.63
2017-09-25T11:55:02.263Z,14.00
2017-09-25T11:57:29.048Z,13.90
2017-09-25T11:59:55.807Z,13.33
2017-09-25T12:02:22.654Z,12.93
2017-09-25T12:04:49.421Z,12.97
2017-09-25T12:07:16.171Z,11.43
2017-09-25T12:09:42.946Z,12.00
2017-09-25T12:12:09.695Z,11.80
2017-09-25T12:14:36.439Z,11.60
2017-09-25T12:17:03.250Z,12.10
2017-09-25T12:19:30.014Z,12.97
2017-09-25T12:21:56.787Z,12.50
2017-09-25T12:24:23.664Z,12.97
2017-09-25T12:26:50.411Z,13.00
2017-09-25T12:29:17.391Z,13.73
2017-09-25T12:31:44.487Z,12.73
2017-09-25T12:34:11.243Z,11.90
2017-09-25T12:36:38.011Z,13.53
2017-09-25T12:39:04.830Z,11.80
2017-09-25T12:41:31.587Z,12.97
2017-09-25T12:43:58.335Z,13.43
2017-09-25T12:46:25.116Z,12.40
2017-09-25T12:48:51.875Z,12.57
2017-09-25T12:51:19.208Z,12.73
2017-09-25T12:53:45.991Z,12.97
2017-09-25T12:56:12.744Z,13.00
2017-09-25T12:58:39.489Z,13.53
2017-09-25T13:01:06.275Z,12.47
2017-09-25T13:03:33.032Z,12.27
2017-09-25T13:05:59.811Z,12.60
2017-09-25T13:08:26.612Z,11.00
2017-09-25T13:10:53.377Z,11.47
2017-09-25T13:13:20.138Z,11.67
2017-09-25T13:15:46.935Z,9.67
2017-09-25T13:18:13.671Z,9.63
2017-09-25T13:20:40.438Z,10.50
2017-09-25T13:23:07.236Z,9.43
2017-09-25T13:25:33.997Z,8.70
2017-09-25T13:28:00.747Z,9.20
2017-09-25T13:30:27.531Z,7.33
2017-09-25T13:32:54.990Z,8.10
2017-09-25T13:35:21.757Z,8.30
2017-09-25T13:37:48.608Z,7.30
2017-09-25T13:40:15.366Z,7.30
2017-09-25T13:42:42.108Z,7.47
2017-09-25T13:45:08.891Z,7.40
2017-09-25T13:47:35.635Z,8.00
2017-09-25T13:50:02.447Z,7.63
2017-09-25T13:52:29.264Z,8.30
2017-09-25T13:54:56.511Z,8.80
2017-09-25T13:57:23.371Z,8.23
2017-09-25T14:02:25.279Z,9.23
2017-09-25T14:04:52.079Z,7.27
2017-09-25T14:07:18.854Z,9.30
2017-09-25T14:09:45.610Z,8.83
2017-09-25T14:12:12.406Z,8.77
2017-09-25T14:14:39.175Z,9.33
2017-09-25T14:17:05.927Z,8.33
2017-09-25T14:19:32.725Z,8.80
2017-09-25T14:21:59.471Z,9.00
2017-09-25T14:24:26.222Z,8.10
2017-09-25T14:26:53.023Z,9.67
2017-09-25T14:29:19.791Z,8.50
2017-09-25T14:31:46.555Z,8.70
2017-09-25T14:34:13.331Z,8.63
2017-09-25T14:36:40.082Z,8.53
2017-09-25T14:39:06.851Z,8.27
2017-09-25T14:41:33.628Z,9.17
2017-09-25T14:44:00.373Z,8.00
2017-09-25T14:46:27.131Z,8.83
2017-09-25T14:48:53.922Z,7.70
2017-09-25T14:51:20.989Z,8.10
2017-09-25T14:53:47.733Z,7.30
2017-09-25T14:56:14.535Z,9.37
2017-09-25T14:58:41.278Z,7.97
2017-09-25T15:01:08.028Z,7.70
2017-09-25T15:03:34.804Z,7.77
2017-09-25T15:06:01.756Z,8.53
2017-09-25T15:08:28.652Z,9.03
2017-09-25T15:10:55.456Z,7.80
2017-09-25T15:13:22.230Z,8.80
2017-09-25T15:15:48.999Z,8.97
2017-09-25T15:18:15.783Z,9.67
2017-09-25T15:20:42.543Z,8.90
2017-09-25T15:23:09.782Z,9.50
2017-09-25T15:25:36.799Z,9.10
2017-09-25T15:28:03.551Z,9.20
2017-09-25T15:30:30.299Z,9.17
2017-09-25T15:32:57.127Z,10.03
2017-09-25T15:35:24.255Z,9.27
2017-09-25T15:37:51.026Z,9.13
2017-09-25T15:40:17.831Z,9.93
2017-09-25T15:42:45.128Z,9.80
2017-09-25T15:45:11.880Z,9.20
2017-09-25T15:47:38.655Z,9.67
2017-09-25T15:50:05.401Z,10.00
2017-09-25T15:52:32.161Z,9.13
2017-09-25T15:54:58.979Z,10.57
2017-09-25T15:57:25.720Z,9.17
2017-09-25T15:59:52.766Z,8.47
2017-09-25T16:02:20.159Z,9.80
2017-09-25T16:04:46.946Z,10.90
2017-09-25T16:07:13.718Z,10.80
2017-09-25T16:09:40.499Z,9.90
2017-09-25T16:12:07.254Z,9.57
2017-09-25T16:14:34.179Z,10.47
2017-09-25T16:17:01.228Z,10.30
2017-09-25T16:19:28.002Z,11.17
2017-09-25T16:21:54.767Z,9.47
2017-09-25T16:24:21.588Z,10.03
2017-09-25T16:26:48.409Z,10.73
2017-09-25T16:29:15.167Z,11.40
2017-09-25T16:31:41.976Z,10.10
2017-09-25T16:34:08.750Z,12.17
2017-09-25T16:36:35.518Z,10.80
2017-09-25T16:39:02.340Z,10.30
2017-09-25T16:41:29.119Z,10.47
2017-09-25T16:43:55.910Z,10.43
2017-09-25T16:46:22.699Z,10.60
2017-09-25T16:48:49.447Z,9.67
2017-09-25T16:51:16.199Z,10.00
2017-09-25T16:53:43.013Z,9.27
2017-09-25T16:56:09.774Z,9.10
2017-09-25T16:58:36.659Z,10.27
2017-09-25T17:01:03.480Z,9.57
2017-09-25T17:03:30.245Z,11.30
2017-09-25T17:05:56.995Z,11.80
2017-09-25T17:08:23.781Z,11.87
2017-09-25T17:10:50.566Z,12.30
2017-09-25T17:13:17.320Z,11.47
2017-09-25T17:15:44.112Z,12.53
2017-09-25T17:18:10.867Z,11.60
2017-09-25T17:20:37.629Z,11.10
2017-09-25T17:23:04.416Z,11.10
2017-09-25T17:25:31.195Z,12.50
2017-09-25T17:27:57.939Z,11.97
2017-09-25T17:30:24.742Z,11.27
2017-09-25T17:32:51.510Z,10.40
2017-09-25T17:35:18.263Z,11.30
2017-09-25T17:37:45.061Z,10.00
2017-09-25T17:40:11.846Z,11.37
2017-09-25T17:42:38.621Z,13.20
2017-09-25T17:45:05.448Z,10.90
2017-09-25T17:47:32.219Z,12.32
2017-09-25T17:49:58.977Z,12.00
2017-09-25T17:52:25.774Z,12.80
2017-09-25T17:54:52.538Z,11.20
2017-09-25T17:57:19.342Z,11.55
2017-09-25T17:59:46.272Z,13.13
2017-09-25T18:02:13.039Z,13.20
2017-09-25T18:04:39.918Z,12.03
2017-09-25T18:07:07.300Z,12.60
2017-09-25T18:09:34.100Z,12.40
2017-09-25T18:12:00.853Z,13.80
2017-09-25T18:14:27.639Z,14.00
2017-09-25T18:16:54.395Z,13.38
2017-09-25T18:19:21.143Z,13.13
2017-09-25T18:21:47.962Z,13.65
2017-09-25T18:24:14.726Z,12.93
2017-09-25T18:26:41.479Z,13.13
2017-09-25T18:29:08.286Z,14.50
2017-09-25T18:31:35.032Z,11.10
2017-09-25T18:34:02.454Z,11.87
2017-09-25T18:36:29.236Z,11.90
2017-09-25T18:38:56.188Z,13.00
2017-09-25T18:41:22.959Z,13.80
2017-09-25T18:43:49.764Z,12.83
2017-09-25T18:46:16.524Z,12.73
2017-09-25T18:48:43.292Z,11.60
2017-09-25T18:51:10.833Z,12.03
2017-09-25T18:53:37.616Z,13.70
2017-09-25T18:56:04.375Z,14.00
2017-09-25T18:58:31.165Z,12.30
2017-09-25T19:00:57.934Z,12.17
2017-09-25T19:03:24.688Z,12.40
2017-09-25T19:05:51.507Z,13.20
2017-09-25T19:08:18.266Z,12.27
2017-09-25T19:10:45.043Z,12.50
2017-09-25T19:13:11.864Z,13.00
2017-09-25T19:15:38.617Z,11.33
2017-09-25T19:18:05.372Z,11.10
2017-09-25T19:20:32.155Z,12.27
2017-09-25T19:22:58.904Z,11.60
2017-09-25T19:25:25.693Z,12.57
2017-09-25T19:27:52.476Z,11.40
2017-09-25T19:30:19.394Z,11.67
2017-09-25T19:32:46.147Z,11.97
2017-09-25T19:35:12.931Z,11.90
2017-09-25T19:37:39.685Z,12.80
2017-09-25T19:40:06.512Z,11.90
2017-09-25T19:42:33.296Z,11.60
2017-09-25T19:45:00.413Z,11.50
2017-09-25T19:47:27.184Z,11.60
2017-09-25T19:49:56.590Z,11.30
2017-09-25T19:52:23.394Z,12.23
2017-09-25T19:54:52.802Z,11.20
2017-09-25T19:57:19.962Z,12.83
2017-09-25T19:59:46.879Z,13.30
2017-09-25T20:02:13.683Z,11.57
2017-09-25T20:04:41.283Z,12.47
2017-09-25T20:07:08.094Z,12.37
2017-09-25T20:09:34.910Z,13.13
2017-09-25T20:12:02.076Z,12.43
2017-09-25T20:14:49.681Z,12.57
2017-09-25T20:17:22.204Z,12.17
2017-09-25T20:19:48.999Z,12.83
2017-09-25T20:22:15.771Z,12.53
2017-09-25T20:24:42.573Z,12.73
2017-09-25T20:27:09.323Z,12.77
2017-09-25T20:29:36.094Z,11.83
2017-09-25T20:32:02.878Z,10.93
2017-09-25T20:34:29.656Z,11.10
2017-09-25T20:36:56.509Z,11.03
2017-09-25T20:39:23.384Z,9.83
2017-09-25T20:42:08.758Z,9.20
2017-09-25T20:44:35.568Z,9.13
2017-09-25T20:47:02.342Z,9.63
2017-09-25T20:49:29.102Z,10.20
2017-09-25T20:51:55.895Z,9.67
2017-09-25T20:54:22.639Z,10.03
2017-09-25T20:56:50.194Z,10.97
2017-09-25T20:59:17.020Z,10.33
2017-09-25T21:01:43.783Z,9.97
2017-09-25T21:04:10.519Z,9.90
2017-09-25T21:06:37.323Z,10.80
2017-09-25T21:09:04.118Z,10.30
2017-09-25T21:11:30.887Z,10.50
2017-09-25T21:13:57.705Z,11.80
2017-09-25T21:16:25.259Z,12.20
2017-09-25T21:18:52.036Z,9.97
2017-09-25T21:21:18.828Z,11.30
2017-09-25T21:23:45.613Z,10.07
2017-09-25T21:26:28.034Z,11.60
2017-09-25T21:28:54.824Z,11.70
2017-09-25T21:31:21.589Z,11.03
2017-09-25T21:33:48.371Z,11.77
2017-09-25T21:36:15.119Z,10.60
2017-09-25T21:38:41.891Z,13.00
2017-09-25T21:41:08.710Z,12.03
2017-09-25T21:43:35.460Z,12.53
2017-09-25T21:46:02.207Z,10.60
2017-09-25T21:48:29.005Z,12.53
2017-09-25T21:50:56.026Z,13.57
2017-09-25T21:53:22.788Z,12.93
2017-09-25T21:55:50.183Z,13.27
2017-09-25T21:58:16.936Z,12.83
2017-09-25T22:00:43.685Z,13.70
2017-09-25T22:03:10.484Z,12.03
2017-09-25T22:05:37.251Z,13.53
2017-09-25T22:08:04.004Z,12.80
2017-09-25T22:10:30.803Z,13.53
2017-09-25T22:12:57.556Z,12.20
2017-09-25T22:15:24.300Z,13.70
2017-09-25T22:17:51.098Z,14.00
2017-09-25T22:20:17.867Z,12.80
2017-09-25T22:22:44.892Z,13.53
2017-09-25T22:25:11.697Z,13.93
2017-09-25T22:27:38.457Z,14.27
2017-09-25T22:30:05.208Z,13.10
2017-09-25T22:32:32.091Z,14.43
2017-09-25T22:34:58.890Z,14.23
2017-09-25T22:37:25.689Z,15.20
2017-09-25T22:39:52.514Z,15.70
2017-09-25T22:42:21.991Z,14.13
2017-09-25T22:44:48.782Z,14.43
2017-09-25T22:47:15.586Z,14.87
2017-09-25T22:49:43.323Z,14.70
2017-09-25T22:52:10.119Z,15.50
2017-09-25T22:54:36.926Z,15.30
2017-09-25T22:57:03.730Z,14.90
2017-09-25T22:59:30.507Z,15.20
2017-09-25T23:01:57.345Z,14.27
2017-09-25T23:04:24.144Z,15.70
2017-09-25T23:06:50.958Z,14.23
2017-09-25T23:09:23.428Z,15.10
2017-09-25T23:11:50.259Z,14.53
2017-09-25T23:14:17.090Z,14.70
2017-09-25T23:16:43.901Z,15.53
2017-09-25T23:19:10.698Z,16.10
2017-09-25T23:21:37.450Z,15.00
2017-09-25T23:24:04.235Z,14.30
2017-09-25T23:26:30.979Z,15.33
2017-09-25T23:28:57.758Z,14.73
2017-09-25T23:31:25.195Z,14.90
2017-09-25T23:33:51.976Z,15.90
2017-09-25T23:36:18.758Z,14.93
2017-09-25T23:38:45.549Z,15.17
2017-09-25T23:41:12.312Z,16.70
2017-09-25T23:43:39.051Z,15.90
2017-09-25T23:46:12.578Z,14.97
2017-09-25T23:48:39.327Z,14.77
2017-09-25T23:51:06.085Z,16.17
2017-09-25T23:53:32.883Z,14.53
2017-09-25T23:55:59.641Z,14.90
2017-09-25T23:58:26.441Z,15.97
